createdAt,value
2023-03-22T00:01:34.015Z,14.27
2023-03-22T00:04:01.714Z,14.60
2023-03-22T00:06:34.110Z,15.70
2023-03-22T00:09:04.832Z,10.23
2023-03-22T00:11:35.225Z,14.20
2023-03-22T00:14:03.075Z,16.60
2023-03-22T00:16:34.495Z,11.00
2023-03-22T00:19:04.396Z,13.80
2023-03-22T00:21:34.614Z,14.65
2023-03-22T00:24:02.504Z,11.02
2023-03-22T00:26:30.091Z,16.90
2023-03-22T00:28:57.486Z,11.93
2023-03-22T00:31:25.227Z,8.63
2023-03-22T00:33:54.119Z,11.90
2023-03-22T00:36:21.698Z,15.70
2023-03-22T00:38:54.531Z,12.55
2023-03-22T00:41:23.024Z,12.98
2023-03-22T00:43:53.603Z,11.38
2023-03-22T00:46:22.137Z,12.73
2023-03-22T00:48:49.986Z,9.50
2023-03-22T00:54:02.167Z,9.88
2023-03-22T00:56:29.709Z,14.32
2023-03-22T01:01:44.490Z,10.25
2023-03-22T01:04:27.998Z,10.65
2023-03-22T01:07:01.345Z,11.05
2023-03-22T01:09:31.052Z,13.30
2023-03-22T01:12:04.743Z,16.33
2023-03-22T01:14:41.505Z,13.02
2023-03-22T01:17:11.817Z,12.70
2023-03-22T01:19:40.737Z,10.57
2023-03-22T01:22:08.777Z,13.95
2023-03-22T01:24:39.929Z,12.32
2023-03-22T01:27:09.013Z,13.00
2023-03-22T01:29:39.148Z,9.50
2023-03-22T01:32:07.182Z,13.20
2023-03-22T01:34:40.512Z,12.43
2023-03-22T01:37:12.312Z,13.75
2023-03-22T01:39:44.318Z,14.75
2023-03-22T01:42:18.141Z,13.77
2023-03-22T01:45:06.330Z,15.90
2023-03-22T01:47:36.832Z,11.30
2023-03-22T01:50:04.832Z,11.38
2023-03-22T01:52:36.388Z,12.57
2023-03-22T01:55:10.962Z,15.60
2023-03-22T01:57:48.387Z,16.75
2023-03-22T02:00:24.741Z,14.82
2023-03-22T02:03:09.616Z,21.08
2023-03-22T02:05:43.045Z,12.52
2023-03-22T02:08:15.073Z,14.80
2023-03-22T02:11:02.405Z,13.52
2023-03-22T02:13:42.273Z,14.75
2023-03-22T02:16:53.418Z,13.60
2023-03-22T02:19:35.038Z,17.83
2023-03-22T02:22:17.689Z,14.73
2023-03-22T02:25:20.172Z,15.48
2023-03-22T02:27:58.983Z,18.20
2023-03-22T02:30:37.703Z,21.63
2023-03-22T02:33:27.208Z,15.20
2023-03-22T02:36:10.457Z,16.42
2023-03-22T02:39:08.319Z,20.70
2023-03-22T02:41:48.479Z,20.50
2023-03-22T02:44:23.080Z,13.48
2023-03-22T02:46:56.105Z,18.98
2023-03-22T02:49:28.424Z,15.77
2023-03-22T02:51:59.737Z,13.30
2023-03-22T02:54:31.398Z,17.67
2023-03-22T02:57:03.907Z,14.48
2023-03-22T02:59:32.765Z,17.48
2023-03-22T03:02:01.698Z,16.55
2023-03-22T03:04:31.662Z,17.48
2023-03-22T03:07:03.909Z,15.15
2023-03-22T03:09:34.056Z,20.95
2023-03-22T03:12:15.147Z,15.50
2023-03-22T03:14:44.932Z,20.60
2023-03-22T03:17:27.378Z,18.60
2023-03-22T03:20:02.581Z,17.80
2023-03-22T03:22:36.244Z,25.55
2023-03-22T03:25:07.406Z,18.02
2023-03-22T03:27:38.291Z,18.48
2023-03-22T03:30:10.451Z,19.27
2023-03-22T03:32:41.936Z,13.85
2023-03-22T03:35:22.381Z,17.55
2023-03-22T03:37:54.503Z,19.00
2023-03-22T03:40:29.153Z,16.88
2023-03-22T03:43:04.004Z,16.70
2023-03-22T03:45:31.759Z,16.58
2023-03-22T03:48:04.007Z,21.02
2023-03-22T03:50:37.438Z,21.45
2023-03-22T03:53:06.989Z,20.10
2023-03-22T03:55:34.885Z,21.42
2023-03-22T03:58:04.228Z,15.43
2023-03-22T04:00:32.035Z,16.88
2023-03-22T04:03:20.457Z,18.92
2023-03-22T04:06:24.712Z,24.10
2023-03-22T04:08:58.001Z,13.75
2023-03-22T04:11:30.155Z,20.95
2023-03-22T04:14:09.460Z,18.58
2023-03-22T04:16:38.245Z,20.30
2023-03-22T04:19:09.065Z,19.80
2023-03-22T04:21:38.334Z,19.90
2023-03-22T04:24:08.780Z,24.73
2023-03-22T04:26:42.346Z,21.90
2023-03-22T04:29:37.469Z,23.48
2023-03-22T04:32:28.154Z,15.75
2023-03-22T04:34:59.565Z,20.02
2023-03-22T04:37:28.058Z,24.73
2023-03-22T04:40:19.689Z,16.95
2023-03-22T04:42:57.524Z,25.48
2023-03-22T04:45:45.173Z,17.65
2023-03-22T04:48:21.623Z,28.88
2023-03-22T04:50:53.134Z,18.42
2023-03-22T04:53:27.145Z,19.65
2023-03-22T04:55:58.148Z,19.20
2023-03-22T04:58:32.420Z,21.48
2023-03-22T05:01:01.501Z,19.58
2023-03-22T05:03:29.031Z,21.50
2023-03-22T05:08:29.021Z,23.38
2023-03-22T05:10:59.551Z,25.27
2023-03-22T05:13:28.746Z,19.05
2023-03-22T05:15:59.219Z,19.80
2023-03-22T05:18:38.011Z,19.13
2023-03-22T05:21:13.654Z,16.80
2023-03-22T05:23:46.118Z,20.55
2023-03-22T05:26:16.173Z,17.98
2023-03-22T05:28:46.832Z,16.67
2023-03-22T05:31:21.901Z,15.07
2023-03-22T05:34:04.863Z,15.60
2023-03-22T05:36:38.324Z,19.77
2023-03-22T05:39:15.849Z,15.57
2023-03-22T05:41:45.932Z,14.77
2023-03-22T05:44:13.804Z,12.95
2023-03-22T05:46:49.952Z,16.00
2023-03-22T05:49:48.143Z,15.82
2023-03-22T05:52:16.917Z,13.75
2023-03-22T05:54:54.446Z,18.88
2023-03-22T05:57:24.524Z,17.17
2023-03-22T05:59:55.281Z,23.48
2023-03-22T06:02:28.567Z,16.90
2023-03-22T06:04:59.648Z,22.55
2023-03-22T06:07:28.851Z,13.15
2023-03-22T06:10:01.030Z,13.50
2023-03-22T06:12:33.631Z,19.83
2023-03-22T06:15:12.613Z,18.27
2023-03-22T06:18:00.580Z,14.30
2023-03-22T06:20:33.319Z,16.45
2023-03-22T06:23:07.164Z,18.77
2023-03-22T06:25:36.352Z,19.73
2023-03-22T06:28:08.544Z,11.13
2023-03-22T06:30:37.832Z,17.23
2023-03-22T06:36:20.284Z,19.40
2023-03-22T06:39:20.311Z,14.40
2023-03-22T06:41:49.328Z,14.30
2023-03-22T06:44:24.590Z,17.63
2023-03-22T06:46:54.439Z,15.65
2023-03-22T06:49:48.401Z,11.80
2023-03-22T06:52:25.439Z,17.33
2023-03-22T06:54:53.641Z,14.77
2023-03-22T06:59:50.707Z,18.15
2023-03-22T07:02:20.389Z,18.77
2023-03-22T07:05:08.143Z,9.30
2023-03-22T07:07:39.268Z,12.55
2023-03-22T07:10:08.985Z,14.05
2023-03-22T07:12:36.812Z,10.55
2023-03-22T07:15:10.370Z,16.25
2023-03-22T07:17:55.652Z,12.65
2023-03-22T07:22:54.439Z,11.77
2023-03-22T07:25:24.436Z,9.82
2023-03-22T07:28:00.532Z,10.45
2023-03-22T07:30:29.824Z,10.82
2023-03-22T07:32:59.548Z,13.50
2023-03-22T07:35:27.221Z,12.15
2023-03-22T07:38:01.699Z,10.80
2023-03-22T07:40:34.833Z,14.02
2023-03-22T07:43:03.149Z,13.60
2023-03-22T07:46:03.891Z,12.27
2023-03-22T07:48:54.831Z,17.23
2023-03-22T07:51:42.205Z,13.82
2023-03-22T07:54:14.030Z,8.90
2023-03-22T07:56:48.895Z,9.23
2023-03-22T07:59:16.962Z,7.32
2023-03-22T08:01:47.740Z,12.88
2023-03-22T08:04:26.000Z,10.25
2023-03-22T08:06:59.970Z,7.78
2023-03-22T08:09:29.991Z,11.52
2023-03-22T08:11:58.662Z,8.63
2023-03-22T08:14:35.963Z,10.02
2023-03-22T08:17:18.336Z,7.15
2023-03-22T08:19:48.124Z,12.18
2023-03-22T08:22:26.009Z,8.82
2023-03-22T08:25:32.925Z,13.57
2023-03-22T08:28:13.266Z,10.27
2023-03-22T08:30:41.070Z,10.35
2023-03-22T08:33:13.237Z,10.38
2023-03-22T08:35:42.716Z,27.30
2023-03-22T08:38:10.926Z,16.38
2023-03-22T08:40:48.319Z,10.00
2023-03-22T08:43:21.764Z,11.52
2023-03-22T08:45:49.211Z,9.68
2023-03-22T08:48:21.092Z,9.45
2023-03-22T08:51:07.530Z,10.00
2023-03-22T08:53:53.379Z,9.88
2023-03-22T08:56:41.768Z,10.23
2023-03-22T08:59:20.364Z,8.48
2023-03-22T09:02:25.685Z,17.50
2023-03-22T09:04:54.700Z,7.68
2023-03-22T09:07:22.629Z,14.50
2023-03-22T09:10:01.049Z,14.55
2023-03-22T09:15:09.229Z,6.97
2023-03-22T09:17:40.256Z,13.32
2023-03-22T09:20:13.297Z,6.40
2023-03-22T09:22:44.214Z,14.40
2023-03-22T09:25:17.600Z,8.77
2023-03-22T09:27:48.438Z,6.57
2023-03-22T09:30:28.992Z,6.57
2023-03-22T09:32:56.749Z,4.63
2023-03-22T09:35:24.337Z,6.85
2023-03-22T09:37:59.915Z,6.80
2023-03-22T09:40:29.443Z,9.57
2023-03-22T09:43:00.962Z,5.95
2023-03-22T09:45:38.392Z,10.75
2023-03-22T09:48:09.166Z,7.78
2023-03-22T09:50:47.870Z,10.98
2023-03-22T09:53:19.109Z,11.98
2023-03-22T09:55:54.097Z,7.32
2023-03-22T09:58:27.001Z,11.18
2023-03-22T10:00:58.827Z,10.65
2023-03-22T10:03:34.545Z,12.30
2023-03-22T10:06:03.593Z,10.95
2023-03-22T10:08:35.222Z,11.68
2023-03-22T10:11:02.822Z,8.23
2023-03-22T10:13:37.895Z,10.20
2023-03-22T10:16:12.790Z,8.60
2023-03-22T10:18:43.490Z,15.95
2023-03-22T10:21:12.306Z,7.85
2023-03-22T10:23:44.058Z,4.45
2023-03-22T10:26:14.874Z,4.32
2023-03-22T10:28:44.257Z,7.82
2023-03-22T10:31:17.528Z,5.20
2023-03-22T10:33:50.350Z,5.22
2023-03-22T10:36:19.061Z,7.35
2023-03-22T10:38:49.796Z,6.28
2023-03-22T10:41:24.388Z,9.65
2023-03-22T10:43:56.164Z,7.00
2023-03-22T10:46:30.653Z,9.45
2023-03-22T10:48:59.625Z,7.88
2023-03-22T10:51:30.162Z,10.80
2023-03-22T10:54:03.656Z,11.07
2023-03-22T10:56:31.045Z,5.50
2023-03-22T10:58:58.623Z,8.52
2023-03-22T11:01:32.180Z,7.45
2023-03-22T11:04:01.221Z,8.70
2023-03-22T11:06:32.735Z,7.25
2023-03-22T11:09:04.530Z,6.90
2023-03-22T11:11:43.033Z,6.22
2023-03-22T11:14:14.031Z,11.88
2023-03-22T11:16:48.625Z,10.00
2023-03-22T11:19:19.189Z,7.35
2023-03-22T11:21:46.714Z,8.07
2023-03-22T11:24:18.110Z,8.65
2023-03-22T11:27:02.170Z,17.05
2023-03-22T11:29:32.090Z,14.15
2023-03-22T11:32:09.254Z,9.90
2023-03-22T11:34:41.044Z,6.32
2023-03-22T11:37:13.335Z,8.13
2023-03-22T11:39:48.044Z,11.63
2023-03-22T11:42:19.115Z,5.70
2023-03-22T11:44:46.536Z,7.85
2023-03-22T11:47:15.663Z,10.13
2023-03-22T11:49:48.473Z,8.10
2023-03-22T11:52:19.595Z,24.67
2023-03-22T11:54:48.927Z,9.57
2023-03-22T11:57:25.160Z,9.38
2023-03-22T11:59:58.989Z,10.07
2023-03-22T12:02:29.591Z,11.52
2023-03-22T12:05:03.591Z,13.30
2023-03-22T12:07:32.604Z,12.85
2023-03-22T12:10:10.296Z,14.93
2023-03-22T12:15:06.546Z,7.57
2023-03-22T12:17:40.375Z,9.73
2023-03-22T12:20:14.055Z,13.43
2023-03-22T12:22:45.636Z,11.52
2023-03-22T12:25:15.935Z,7.75
2023-03-22T12:27:47.032Z,10.77
2023-03-22T12:30:16.339Z,6.45
2023-03-22T12:32:47.340Z,7.05
2023-03-22T12:35:25.026Z,17.08
2023-03-22T12:37:55.277Z,11.13
2023-03-22T12:40:25.250Z,5.45
2023-03-22T12:43:00.248Z,7.40
2023-03-22T12:45:28.870Z,6.32
2023-03-22T12:48:01.627Z,7.90
2023-03-22T12:50:32.099Z,5.97
2023-03-22T12:52:59.722Z,6.63
2023-03-22T12:55:28.848Z,8.65
2023-03-22T12:57:56.619Z,6.68
2023-03-22T13:00:28.547Z,15.05
2023-03-22T13:02:59.872Z,8.27
2023-03-22T13:05:34.688Z,4.68
2023-03-22T13:08:04.097Z,8.68
2023-03-22T13:11:00.869Z,10.60
2023-03-22T13:13:50.076Z,8.38
2023-03-22T13:16:22.645Z,12.70
2023-03-22T13:19:18.725Z,7.85
2023-03-22T13:21:49.119Z,9.05
2023-03-22T13:24:30.590Z,6.13
2023-03-22T13:26:59.928Z,8.63
2023-03-22T13:29:38.018Z,7.90
2023-03-22T13:32:06.844Z,3.55
2023-03-22T13:34:40.797Z,8.00
2023-03-22T13:37:13.078Z,5.43
2023-03-22T13:39:46.524Z,9.90
2023-03-22T13:42:21.094Z,7.80
2023-03-22T13:44:58.393Z,7.25
2023-03-22T13:47:33.949Z,10.52
2023-03-22T13:50:07.300Z,5.18
2023-03-22T13:52:42.269Z,5.60
2023-03-22T13:55:28.816Z,7.38
2023-03-22T13:58:00.410Z,12.00
2023-03-22T14:00:47.577Z,9.05
2023-03-22T14:03:17.143Z,9.45
2023-03-22T14:05:53.748Z,7.45
2023-03-22T14:08:28.246Z,12.55
2023-03-22T14:11:00.511Z,7.50
2023-03-22T14:13:31.465Z,11.88
2023-03-22T14:16:03.759Z,5.40
2023-03-22T14:18:32.409Z,10.23
2023-03-22T14:21:04.806Z,11.15
